N605VV KDTA-KENV
Flight info
| Callsign | N605VV |
|---|---|
| Flight time | 0h 29m |
| Altitude | 28000 |
| Route | YADDY |
| Aircraft | CL60/M-SBDE1E2E3FGHIJ1J4J5J7M3RWXYZ/LB1V1D1 |
Departure
| Time | 2026-04-18 12:51 |
|---|---|
| Airport | Delta Municipal Airport (KDTA) |
Arrival
| Time | 2026-04-18 13:20 |
|---|---|
| Airport | Wendover Airport (KENV) |
| Time | Latitude | Longitude | Altitude | Speed | Heading |
|---|---|---|---|---|---|
| 2026-04-18 12:36 | 39.38564 | -112.51230 | 4763 ft | 0 kts | 316° |
| 2026-04-18 12:46 | 39.38568 | -112.51238 | 4763 ft | 2 kts | 271° |
| 2026-04-18 12:46 | 39.38549 | -112.51256 | 4763 ft | 4 kts | 181° |
| 2026-04-18 12:46 | 39.38518 | -112.51229 | 4763 ft | 6 kts | 137° |
| 2026-04-18 12:46 | 39.38483 | -112.51183 | 4764 ft | 8 kts | 133° |
| 2026-04-18 12:47 | 39.38439 | -112.51131 | 4764 ft | 8 kts | 158° |
| 2026-04-18 12:47 | 39.38384 | -112.51176 | 4763 ft | 11 kts | 224° |
| 2026-04-18 12:47 | 39.38325 | -112.51250 | 4762 ft | 7 kts | 224° |
| 2026-04-18 12:47 | 39.38277 | -112.51253 | 4761 ft | 9 kts | 137° |
| 2026-04-18 12:48 | 39.38223 | -112.51185 | 4761 ft | 12 kts | 134° |
| 2026-04-18 12:48 | 39.38157 | -112.51100 | 4761 ft | 14 kts | 135° |
| 2026-04-18 12:48 | 39.38079 | -112.51002 | 4760 ft | 16 kts | 135° |
| 2026-04-18 12:48 | 39.38007 | -112.50909 | 4760 ft | 15 kts | 135° |
| 2026-04-18 12:49 | 39.37927 | -112.50807 | 4759 ft | 17 kts | 135° |
| 2026-04-18 12:49 | 39.37835 | -112.50691 | 4758 ft | 19 kts | 135° |
| 2026-04-18 12:49 | 39.37735 | -112.50563 | 4758 ft | 20 kts | 135° |
| 2026-04-18 12:49 | 39.37643 | -112.50445 | 4758 ft | 16 kts | 135° |
| 2026-04-18 12:50 | 39.37568 | -112.50351 | 4757 ft | 11 kts | 137° |
| 2026-04-18 12:50 | 39.37491 | -112.50330 | 4756 ft | 9 kts | 178° |
| 2026-04-18 12:50 | 39.37459 | -112.50271 | 4756 ft | 8 kts | 91° |
| 2026-04-18 12:50 | 39.37467 | -112.50229 | 4756 ft | 3 kts | 30° |
| 2026-04-18 12:51 | 39.37500 | -112.50226 | 4756 ft | 8 kts | 0° |
| 2026-04-18 12:51 | 39.37839 | -112.50223 | 4760 ft | 95 kts | 0° |
| 2026-04-18 12:51 | 39.38765 | -112.50215 | 4829 ft | 163 kts | 1° |
| 2026-04-18 12:51 | 39.39977 | -112.50165 | 5515 ft | 183 kts | 4° |
| 2026-04-18 12:52 | 39.41285 | -112.50091 | 6317 ft | 202 kts | 3° |
| 2026-04-18 12:52 | 39.42816 | -112.50090 | 6903 ft | 229 kts | 0° |
| 2026-04-18 12:52 | 39.44504 | -112.50118 | 7563 ft | 259 kts | 0° |
| 2026-04-18 12:52 | 39.46368 | -112.50117 | 8648 ft | 271 kts | 0° |
| 2026-04-18 12:53 | 39.48254 | -112.50112 | 9861 ft | 278 kts | 0° |
| 2026-04-18 12:53 | 39.50216 | -112.50107 | 10975 ft | 292 kts | 360° |
| 2026-04-18 12:53 | 39.52329 | -112.50100 | 11875 ft | 310 kts | 359° |
| 2026-04-18 12:53 | 39.54481 | -112.50092 | 12889 ft | 320 kts | 359° |
| 2026-04-18 12:54 | 39.56714 | -112.50082 | 14028 ft | 324 kts | 359° |
| 2026-04-18 12:54 | 39.58983 | -112.50071 | 15128 ft | 329 kts | 358° |
| 2026-04-18 12:54 | 39.61286 | -112.50060 | 16169 ft | 334 kts | 358° |
| 2026-04-18 12:54 | 39.63578 | -112.50049 | 17193 ft | 338 kts | 358° |
| 2026-04-18 12:55 | 39.65946 | -112.50036 | 18217 ft | 341 kts | 357° |
| 2026-04-18 12:55 | 39.68325 | -112.50024 | 19122 ft | 345 kts | 356° |
| 2026-04-18 12:55 | 39.70654 | -112.50011 | 19981 ft | 349 kts | 356° |
| 2026-04-18 12:55 | 39.73095 | -112.49998 | 20826 ft | 354 kts | 355° |
| 2026-04-18 12:56 | 39.75551 | -112.49984 | 21652 ft | 357 kts | 355° |
| 2026-04-18 12:56 | 39.78034 | -112.49970 | 22464 ft | 360 kts | 355° |
| 2026-04-18 12:56 | 39.80553 | -112.49955 | 23230 ft | 364 kts | 354° |
| 2026-04-18 12:56 | 39.83022 | -112.49941 | 23927 ft | 368 kts | 354° |
| 2026-04-18 12:57 | 39.85600 | -112.49926 | 24670 ft | 372 kts | 354° |
| 2026-04-18 12:57 | 39.88229 | -112.49911 | 25397 ft | 376 kts | 354° |
| 2026-04-18 12:57 | 39.90845 | -112.49895 | 26079 ft | 379 kts | 354° |
| 2026-04-18 12:57 | 39.93492 | -112.49879 | 26752 ft | 382 kts | 354° |
| 2026-04-18 12:58 | 39.96159 | -112.49862 | 27394 ft | 385 kts | 354° |
| 2026-04-18 12:58 | 39.98839 | -112.49845 | 27987 ft | 388 kts | 353° |
| 2026-04-18 12:58 | 40.01559 | -112.49831 | 28228 ft | 399 kts | 354° |
| 2026-04-18 12:58 | 40.04398 | -112.49819 | 28244 ft | 414 kts | 354° |
| 2026-04-18 12:59 | 40.07317 | -112.49803 | 28237 ft | 424 kts | 354° |
| 2026-04-18 12:59 | 40.13290 | -112.49761 | 28239 ft | 423 kts | 354° |
| 2026-04-18 13:00 | 40.19154 | -112.49717 | 28242 ft | 418 kts | 354° |
| 2026-04-18 13:00 | 40.24961 | -112.49676 | 28245 ft | 417 kts | 354° |
| 2026-04-18 13:01 | 40.30833 | -112.49638 | 28255 ft | 418 kts | 354° |
| 2026-04-18 13:01 | 40.36666 | -112.49599 | 28258 ft | 417 kts | 354° |
| 2026-04-18 13:02 | 40.42469 | -112.49560 | 28264 ft | 417 kts | 354° |
| 2026-04-18 13:02 | 40.48284 | -112.49522 | 28264 ft | 417 kts | 354° |
| 2026-04-18 13:03 | 40.53970 | -112.49485 | 28266 ft | 417 kts | 354° |
| 2026-04-18 13:03 | 40.62586 | -112.49429 | 28250 ft | 416 kts | 354° |
| 2026-04-18 13:04 | 40.65458 | -112.49410 | 28000 ft | 413 kts | 354° |
| 2026-04-18 13:04 | 40.68320 | -112.49387 | 27499 ft | 403 kts | 354° |
| 2026-04-18 13:04 | 40.71105 | -112.49365 | 26995 ft | 395 kts | 354° |
| 2026-04-18 13:04 | 40.73788 | -112.49694 | 26415 ft | 381 kts | 342° |
| 2026-04-18 13:05 | 40.76199 | -112.50920 | 25746 ft | 369 kts | 327° |
| 2026-04-18 13:05 | 40.78214 | -112.52959 | 25138 ft | 361 kts | 313° |
| 2026-04-18 13:05 | 40.79715 | -112.55579 | 24392 ft | 360 kts | 300° |
| 2026-04-18 13:05 | 40.80639 | -112.58649 | 23442 ft | 366 kts | 284° |
| 2026-04-18 13:06 | 40.80861 | -112.61950 | 23139 ft | 357 kts | 272° |
| 2026-04-18 13:06 | 40.80687 | -112.65099 | 22640 ft | 353 kts | 268° |
| 2026-04-18 13:06 | 40.80460 | -112.68336 | 22192 ft | 350 kts | 268° |
| 2026-04-18 13:06 | 40.80250 | -112.71397 | 21757 ft | 351 kts | 268° |
| 2026-04-18 13:07 | 40.80030 | -112.74607 | 21288 ft | 352 kts | 268° |
| 2026-04-18 13:07 | 40.79807 | -112.77840 | 20822 ft | 351 kts | 268° |
| 2026-04-18 13:07 | 40.79586 | -112.81020 | 20357 ft | 350 kts | 268° |
| 2026-04-18 13:07 | 40.79366 | -112.84194 | 19894 ft | 349 kts | 268° |
| 2026-04-18 13:08 | 40.79142 | -112.87392 | 19426 ft | 348 kts | 268° |
| 2026-04-18 13:08 | 40.78920 | -112.90572 | 18970 ft | 347 kts | 268° |
| 2026-04-18 13:08 | 40.78697 | -112.93741 | 18502 ft | 346 kts | 268° |
| 2026-04-18 13:08 | 40.78494 | -112.96623 | 17896 ft | 348 kts | 268° |
| 2026-04-18 13:09 | 40.78273 | -112.99731 | 17387 ft | 343 kts | 268° |
| 2026-04-18 13:09 | 40.78051 | -113.02857 | 16908 ft | 341 kts | 268° |
| 2026-04-18 13:09 | 40.77843 | -113.05776 | 16477 ft | 341 kts | 268° |
| 2026-04-18 13:09 | 40.77637 | -113.08650 | 16058 ft | 341 kts | 267° |
| 2026-04-18 13:10 | 40.77414 | -113.11754 | 15603 ft | 339 kts | 267° |
| 2026-04-18 13:10 | 40.77191 | -113.14843 | 15156 ft | 338 kts | 267° |
| 2026-04-18 13:10 | 40.76968 | -113.17925 | 14709 ft | 337 kts | 267° |
| 2026-04-18 13:10 | 40.76746 | -113.20978 | 14267 ft | 335 kts | 267° |
| 2026-04-18 13:11 | 40.76522 | -113.24033 | 13822 ft | 334 kts | 267° |
| 2026-04-18 13:11 | 40.76300 | -113.27068 | 13382 ft | 332 kts | 266° |
| 2026-04-18 13:11 | 40.76075 | -113.30132 | 12931 ft | 330 kts | 266° |
| 2026-04-18 13:11 | 40.75856 | -113.33102 | 12489 ft | 326 kts | 266° |
| 2026-04-18 13:12 | 40.75637 | -113.36053 | 12063 ft | 318 kts | 266° |
| 2026-04-18 13:12 | 40.75441 | -113.38683 | 11684 ft | 313 kts | 266° |
| 2026-04-18 13:12 | 40.75239 | -113.41399 | 11285 ft | 306 kts | 266° |
| 2026-04-18 13:12 | 40.75034 | -113.44131 | 10891 ft | 298 kts | 266° |
| 2026-04-18 13:13 | 40.74833 | -113.46815 | 10501 ft | 291 kts | 265° |
| 2026-04-18 13:13 | 40.74634 | -113.49459 | 10122 ft | 285 kts | 265° |
| 2026-04-18 13:13 | 40.74440 | -113.52041 | 9755 ft | 284 kts | 265° |
| 2026-04-18 13:13 | 40.74243 | -113.54647 | 9361 ft | 281 kts | 265° |
| 2026-04-18 13:14 | 40.74052 | -113.57177 | 9040 ft | 275 kts | 265° |
| 2026-04-18 13:14 | 40.73938 | -113.58823 | 8974 ft | 266 kts | 265° |
| 2026-04-18 13:14 | 40.73733 | -113.61927 | 8983 ft | 239 kts | 265° |
| 2026-04-18 13:14 | 40.73592 | -113.64067 | 8968 ft | 235 kts | 265° |
| 2026-04-18 13:15 | 40.73449 | -113.66246 | 8954 ft | 236 kts | 265° |
| 2026-04-18 13:15 | 40.73305 | -113.68440 | 8887 ft | 239 kts | 265° |
| 2026-04-18 13:15 | 40.73159 | -113.70654 | 8558 ft | 238 kts | 265° |
| 2026-04-18 13:15 | 40.73018 | -113.72800 | 8275 ft | 230 kts | 265° |
| 2026-04-18 13:16 | 40.72883 | -113.74837 | 7976 ft | 220 kts | 265° |
| 2026-04-18 13:16 | 40.72753 | -113.76798 | 7707 ft | 211 kts | 265° |
| 2026-04-18 13:16 | 40.72627 | -113.78696 | 7436 ft | 203 kts | 264° |
| 2026-04-18 13:16 | 40.72545 | -113.79927 | 7258 ft | 198 kts | 264° |
| 2026-04-18 13:17 | 40.72388 | -113.82281 | 6910 ft | 189 kts | 264° |
| 2026-04-18 13:17 | 40.72274 | -113.83978 | 6670 ft | 185 kts | 264° |
| 2026-04-18 13:17 | 40.72160 | -113.85674 | 6408 ft | 186 kts | 264° |
| 2026-04-18 13:17 | 40.72046 | -113.87386 | 6167 ft | 185 kts | 264° |
| 2026-04-18 13:18 | 40.71934 | -113.89066 | 5923 ft | 185 kts | 265° |
| 2026-04-18 13:18 | 40.71896 | -113.90728 | 5668 ft | 177 kts | 270° |
| 2026-04-18 13:18 | 40.71899 | -113.92287 | 5463 ft | 154 kts | 270° |
| 2026-04-18 13:18 | 40.71901 | -113.93655 | 5264 ft | 151 kts | 270° |
| 2026-04-18 13:19 | 40.71900 | -113.95022 | 5017 ft | 148 kts | 270° |
| 2026-04-18 13:19 | 40.71897 | -113.96370 | 4842 ft | 145 kts | 271° |
| 2026-04-18 13:19 | 40.71898 | -113.97710 | 4703 ft | 146 kts | 271° |
| 2026-04-18 13:19 | 40.71906 | -113.99043 | 4503 ft | 144 kts | 270° |
| 2026-04-18 13:20 | 40.71887 | -114.00371 | 4333 ft | 144 kts | 270° |
| 2026-04-18 13:20 | 40.71893 | -114.01683 | 4227 ft | 131 kts | 271° |
| 2026-04-18 13:20 | 40.71892 | -114.02590 | 4226 ft | 74 kts | 272° |
| 2026-04-18 13:20 | 40.71892 | -114.03007 | 4226 ft | 22 kts | 273° |
| 2026-04-18 13:21 | 40.71914 | -114.03163 | 4226 ft | 14 kts | 305° |
| 2026-04-18 13:21 | 40.71957 | -114.03222 | 4227 ft | 6 kts | 315° |
| 2026-04-18 13:21 | 40.72000 | -114.03278 | 4227 ft | 10 kts | 315° |
| 2026-04-18 13:21 | 40.72061 | -114.03358 | 4227 ft | 13 kts | 315° |
| 2026-04-18 13:22 | 40.72130 | -114.03449 | 4228 ft | 14 kts | 314° |
| 2026-04-18 13:22 | 40.72203 | -114.03548 | 4229 ft | 15 kts | 314° |
| 2026-04-18 13:22 | 40.72285 | -114.03655 | 4230 ft | 16 kts | 315° |
| 2026-04-18 13:22 | 40.72361 | -114.03754 | 4230 ft | 17 kts | 315° |
| 2026-04-18 13:23 | 40.72450 | -114.03872 | 4231 ft | 18 kts | 315° |
| 2026-04-18 13:23 | 40.72545 | -114.03997 | 4233 ft | 17 kts | 315° |
| 2026-04-18 13:23 | 40.72615 | -114.04056 | 4233 ft | 12 kts | 359° |
| 2026-04-18 13:23 | 40.72703 | -114.04056 | 4234 ft | 11 kts | 0° |
| 2026-04-18 13:24 | 40.72749 | -114.04025 | 4234 ft | 7 kts | 92° |
| 2026-04-18 13:24 | 40.72747 | -114.03996 | 4234 ft | 0 kts | 94° |